logo
Search for airport 
image banner adimage banner adimage banner ad
image banner ad

LF8622 - Buxeuil Saint Rémy sur Creuse

Located in St Rémy sur Creuse, France

ICAO - , IATA -

Data provided by Airmate  

General information

Coordinates: N46°56'58" E0°40'10"
Elevation is 370 feet MSL.
 
View others Airports in Poitou-Charentes

Operational data

Special qualification required
Current time UTC:
Current local time:
Weather at : LFBI - Poitiers Biard ( 49 km )
METAR: LFBI 231730Z AUTO 26010KT 230V290 9999 FEW030 25/18 Q1022 NOSIG
TAF: TAF LFBI 231700Z 2318/2418 28007KT 9999 SCT035
View NOTAMs / SUP AIP / TFR affecting this airport [VIEW]
Communications frequencies: [VIEW]

Runways:

RWY identifierQFULength (ft)Width (ft)SurfaceLDA (ft)
13259119ASPH
31259119ASPH

Airport contact information

Address: St Rémy sur Creuse France

Satellite view of LF8622